Blythe, CA

2:45 AM PDT on September 23, 2014 (GMT -0700)
farmerman92225 | Change Station
CLOSE
Current Station
Personal Weather Station
Location: Blythe, CA
Elevation: 259 ft
Nearby Weather Stations

Elev 259 ft 33.62 °N, 114.66 °W | Updated 16 seconds ago

Clear
Clear
71.5 °F
Feels Like 75 °F
N
0.0
Wind Variable Wind from NW
Gusts 0.0 mph

Today
High -- | Low -- °F
--% Chance of Precip.
Yesterday
High -- | Low -- °F
Precip. -- in
6:27 AM 6:33 PM
Waning Crescent, 1% visible
Pressure 29.86 in
Visibility 10.0 miles
Clouds Clear
Heat Index 75 °F
Dew Point 59 °F
Humidity 64%
Rainfall 0.00 in
Snow Depth 0 in , 1 in , 0 in
UV 0 out of 12
Pollen 8.60 out of 12
Ozone Good
Flu Activity Not available.
METAR KBLH 230852Z AUTO 17003KT 10SM CLR 29/12 A2988 RMK AO2 SLP110 T02890122 51004

More Conditions Fewer Conditions

Pressure 29.86 in
Visibility 10.0 miles
Clouds Clear
Heat Index 75 °F
Dew Point 59 °F
Humidity 64%
Rainfall 0.00 in
Snow Depth 0 in , 1 in , 0 in
UV 0 out of 12
Pollen 8.60 out of 12
Ozone Good
Flu Activity Not available.
METAR KBLH 230852Z AUTO 17003KT 10SM CLR 29/12 A2988 RMK AO2 SLP110 T02890122 51004

More Conditions Fewer Conditions

10-Day Weather Forecast

Almanac

Astronomy

Sep. 23, 2014 Rise Set
Actual Time 6:27 AM PDT 6:33 PM PDT
Civil Twilight 6:02 AM PDT 6:58 PM PDT
Nautical Twilight 5:33 AM PDT 7:27 PM PDT
Astronomical Twilight 5:04 AM PDT 7:56 PM PDT
Moon 5:55 AM PDT 6:15 PM PDT
Length of Visible Light 12h 55m
Length of Day
12h 06m
Tomorrow will be 2m 3s shorter.
Waning Crescent, 1% of the Moon is Illuminated
Today
Waning Crescent
Sep 24
New
Oct 1
First Quarter
Oct 8
Full
Oct 15
Last Quarter

Today's Extremes

State Highs State Lows

Community

WunderPhotos

Upload Photos

1,755,644 photos uploaded!

Nearby

Air Quality

  Air Quality AQ Index Pollutant
Yesterday Moderate
OZONE
Yesterday Good
PM10
Current Good
OZONE
Tuesday Good
PM10
Tuesday Good
OZONE
Tuesday Good
CO
Tuesday Good
NO2

Snow Depth

Station Depth Elevation
Adin Mountain 0 in 6200 ft
Leavitt Lake 1 in 9400 ft
Sonora Pass 0 in 8800 ft
Fallen Leaf 0 in 6300 ft
Burnside Lake 0 in 8139 ft

Earthquake Activity

City Distance Mag. Time & Date
Borrego Springs, California 108 miles 2.6 7:34 AM PDT
2014-09-21
Minimum magnitude displayed is 2.5.

Coastal Water Temperatures

Place Temperature
No Stations Reporting

Nearby Weather Stations